Time;durP1;ratioP1;P1;durP2;ratioP2;P2;SDS_P1;SDS_P2;PMS_P1;PMS_P2;Temp;Humidity;BMP_temperature;BMP_pressure;BME280_temperature;BME280_humidity;BME280_pressure;Samples;Min_cycle;Max_cycle;Signal;HPM_P1;HPM_P2
2022/05/11 07:00:11;;;;;;;;;5.00;4.00;;;;;19.84;46.21;98509.50;3294608;23;103219;-83
2022/05/11 07:02:39;;;;;;;;;4.33;4.33;;;;;19.89;46.12;98504.06;4927280;28;108682;-84
2022/05/11 07:05:06;;;;;;;;;5.00;4.00;;;;;19.90;45.88;98492.00;4923605;28;102519;-84
2022/05/11 07:07:34;;;;;;;;;5.67;4.00;;;;;19.92;45.93;98501.59;4924589;28;102380;-84
2022/05/11 07:10:02;;;;;;;;;4.33;4.00;;;;;20.00;45.70;98505.75;4928447;28;103463;-84
2022/05/11 07:12:35;;;;;;;;;3.67;3.67;;;;;20.02;45.59;98509.09;4937649;28;104007;-84
2022/05/11 07:15:05;;;;;;;;;6.00;5.00;;;;;20.05;45.59;98503.88;4929558;28;102347;-84
2022/05/11 07:17:38;;;;;;;;;5.00;5.00;;;;;20.09;45.68;98509.66;4929680;28;102030;-84
2022/05/11 07:20:17;;;;;;;;;6.00;5.00;;;;;20.11;45.45;98496.53;4930026;28;102402;-84
2022/05/11 07:22:44;;;;;;;;;5.00;4.00;;;;;20.13;45.48;98494.31;4921342;28;109057;-84
2022/05/11 07:25:13;;;;;;;;;5.67;5.00;;;;;20.15;45.20;98491.31;4930764;28;102656;-84
2022/05/11 07:27:42;;;;;;;;;4.00;3.67;;;;;20.16;45.39;98485.56;4932994;28;102207;-84
2022/05/11 07:30:11;;;;;;;;;5.33;5.00;;;;;20.18;45.05;98483.38;4931259;28;105743;-84
2022/05/11 07:32:38;;;;;;;;;4.00;4.00;;;;;20.22;44.93;98484.50;4926913;28;109008;-84
2022/05/11 07:35:06;;;;;;;;;5.00;4.00;;;;;20.22;45.21;98478.19;4927063;28;102584;-84
2022/05/11 07:37:33;;;;;;;;;6.00;5.00;;;;;20.23;44.90;98480.66;4921575;28;101950;-84
2022/05/11 07:40:00;;;;;;;;;6.00;5.33;;;;;20.24;45.01;98478.75;4933789;28;102593;-83
2022/05/11 07:42:28;;;;;;;;;5.00;4.33;;;;;20.28;45.25;98477.94;4928242;28;104108;-84
2022/05/11 07:44:55;;;;;;;;;5.33;5.00;;;;;20.28;44.97;98475.19;4920759;28;102308;-84
2022/05/11 07:47:22;;;;;;;;;6.00;5.00;;;;;20.30;45.32;98467.56;4923012;28;102542;-84
2022/05/11 07:49:49;;;;;;;;;5.67;4.67;;;;;20.31;45.21;98466.44;4928049;28;102239;-84
2022/05/11 07:52:16;;;;;;;;;4.67;4.67;;;;;20.32;44.89;98470.84;4925188;28;103464;-84
2022/05/11 07:54:44;;;;;;;;;5.00;3.00;;;;;20.33;44.93;98467.03;4924355;28;102423;-83
2022/05/11 07:59:57;;;;;;;;;4.67;4.00;;;;;20.38;45.16;98464.31;4905628;28;102533;-84
2022/05/11 08:02:27;;;;;;;;;4.00;4.00;;;;;20.40;44.82;98466.75;4908267;28;104082;-84
2022/05/11 08:04:57;;;;;;;;;4.33;4.33;;;;;20.40;44.92;98456.59;4901870;28;102254;-84
2022/05/11 08:07:41;;;;;;;;;6.00;5.33;;;;;20.42;44.86;98465.41;4907248;28;102159;-83
2022/05/11 08:10:11;;;;;;;;;4.67;4.00;;;;;20.44;45.00;98465.97;4913996;28;102191;-84
2022/05/11 08:12:38;;;;;;;;;3.00;3.00;;;;;20.45;45.04;98467.63;4913374;28;109022;-84
2022/05/11 08:15:06;;;;;;;;;5.67;4.67;;;;;20.47;44.75;98457.19;4910124;28;102155;-84
2022/05/11 08:17:34;;;;;;;;;3.67;3.67;;;;;20.48;45.05;98456.13;4912670;28;102116;-83
2022/05/11 08:20:03;;;;;;;;;4.00;4.00;;;;;20.49;45.09;98456.91;4917627;28;104059;-84
2022/05/11 08:22:30;;;;;;;;;3.67;3.67;;;;;20.48;45.22;98453.38;4910846;28;104106;-83
2022/05/11 08:24:57;;;;;;;;;5.33;4.67;;;;;20.52;44.93;98459.16;4905461;28;102009;-84
2022/05/11 08:27:27;;;;;;;;;5.00;4.00;;;;;20.54;44.78;98453.34;4911320;28;102077;-84
2022/05/11 08:36:06;;;;;;;;;5.67;5.00;;;;;20.57;44.59;98444.59;4913596;28;102434;-83
2022/05/11 08:38:36;;;;;;;;;6.00;5.33;;;;;20.57;45.01;98441.84;4913873;28;102314;-83
2022/05/11 08:41:10;;;;;;;;;5.33;4.33;;;;;20.57;44.77;98444.59;4916275;28;102348;-83
2022/05/11 08:43:38;;;;;;;;;5.00;4.00;;;;;20.58;44.60;98440.75;4915663;28;109132;-84
2022/05/11 08:46:47;;;;;;;;;4.00;4.00;;;;;20.59;44.58;98448.72;4903716;28;102162;-83
2022/05/11 08:49:27;;;;;;;;;4.00;3.00;;;;;20.60;45.05;98444.06;4912379;28;102209;-84
2022/05/11 08:52:04;;;;;;;;;6.00;5.00;;;;;20.60;44.93;98444.88;4907325;28;102259;-83
2022/05/11 08:54:41;;;;;;;;;3.67;3.33;;;;;20.61;44.64;98435.56;4890638;28;104150;-84
2022/05/11 08:57:14;;;;;;;;;3.33;3.33;;;;;20.61;44.82;98438.31;4909291;28;102149;-84
2022/05/11 08:59:41;;;;;;;;;5.00;4.00;;;;;20.58;45.02;98425.06;4901879;28;102228;-82
2022/05/11 09:02:19;;;;;;;;;3.33;3.33;;;;;20.64;44.88;98434.16;4911290;28;103096;-84
2022/05/11 09:04:55;;;;;;;;;3.33;3.33;;;;;20.64;44.38;98434.16;4910698;28;108812;-83
2022/05/11 09:07:22;;;;;;;;;4.00;4.00;;;;;20.64;44.79;98434.16;4907763;28;103232;-83
2022/05/11 09:09:53;;;;;;;;;4.33;4.33;;;;;20.66;45.01;98432.00;4909859;28;103453;-83
2022/05/11 09:12:20;;;;;;;;;3.67;3.67;;;;;20.66;44.81;98426.50;4909295;28;101984;-83
2022/05/11 09:14:54;;;;;;;;;4.33;3.33;;;;;20.67;44.88;98436.41;4908831;28;103638;-83
2022/05/11 09:17:26;;;;;;;;;3.00;2.67;;;;;20.67;44.91;98437.19;4911885;28;104826;-83
2022/05/11 09:20:12;;;;;;;;;3.67;3.67;;;;;20.68;44.76;98435.28;4909237;28;101880;-84
2022/05/11 09:22:52;;;;;;;;;2.67;2.67;;;;;20.69;44.72;98431.44;4905536;28;102172;-83
2022/05/11 09:25:24;;;;;;;;;4.00;4.00;;;;;20.70;44.99;98433.09;4905632;28;108909;-83
2022/05/11 09:27:52;;;;;;;;;4.00;3.67;;;;;20.71;44.98;98432.00;4905702;28;103256;-83
2022/05/11 09:30:24;;;;;;;;;3.00;3.00;;;;;20.71;44.62;98429.25;4906651;28;102609;-83
2022/05/11 09:32:53;;;;;;;;;5.33;4.67;;;;;20.72;44.70;98434.47;4912089;28;102446;-83
2022/05/11 09:35:37;;;;;;;;;3.33;3.33;;;;;20.74;44.98;98434.22;4909313;28;104119;-83
2022/05/11 09:38:19;;;;;;;;;4.00;4.00;;;;;20.71;44.74;98423.78;4908477;28;101972;-83
2022/05/11 09:40:56;;;;;;;;;3.67;2.67;;;;;20.75;44.99;98424.88;4909198;28;110809;-83
2022/05/11 09:43:40;;;;;;;;;4.00;4.00;;;;;20.76;45.06;98421.00;4909600;28;102468;-85
2022/05/11 09:46:29;;;;;;;;;3.00;3.00;;;;;20.76;44.88;98424.59;4914700;28;108994;-84
2022/05/11 09:49:01;;;;;;;;;4.00;3.67;;;;;20.77;44.68;98425.41;4906338;28;102172;-85
2022/05/11 09:52:02;;;;;;;;;5.33;3.67;;;;;20.77;44.54;98429.00;4902988;28;102259;-83
2022/05/11 09:54:42;;;;;;;;;2.67;2.67;;;;;20.79;45.05;98426.81;4911391;28;102158;-83
2022/05/11 09:57:20;;;;;;;;;2.67;2.67;;;;;20.80;44.49;98428.44;4904111;28;108812;-84
2022/05/11 09:59:52;;;;;;;;;3.00;3.00;;;;;20.82;44.96;98428.19;4910948;28;102229;-83
2022/05/11 10:02:24;;;;;;;;;4.00;4.00;;;;;20.82;44.50;98411.69;4905988;28;102510;-82
2022/05/11 10:04:53;;;;;;;;;3.67;3.67;;;;;20.83;44.65;98410.59;4912586;28;102395;-83
2022/05/11 10:07:20;;;;;;;;;3.00;3.00;;;;;20.84;44.47;98415.84;4907892;28;104371;-83
2022/05/11 10:09:52;;;;;;;;;4.33;4.00;;;;;20.82;44.56;98403.44;4909990;28;102128;-83
2022/05/11 10:12:23;;;;;;;;;3.67;3.33;;;;;20.85;44.51;98409.22;4903568;28;102117;-83
2022/05/11 10:23:57;;;;;;;;;2.67;2.67;;;;;20.88;44.58;98403.19;4902437;28;102258;-85
2022/05/11 10:26:38;;;;;;;;;0.67;0.67;;;;;20.89;44.88;98399.31;4910176;28;103849;-84
2022/05/11 10:29:28;;;;;;;;;2.67;2.67;;;;;20.91;44.54;98401.81;4926621;28;104076;-84
2022/05/11 10:32:16;;;;;;;;;2.67;2.67;;;;;20.92;44.86;98400.72;4902465;28;103020;-84
2022/05/11 10:35:01;;;;;;;;;4.00;3.00;;;;;20.93;44.51;98405.13;4904607;28;102068;-83
2022/05/11 10:37:52;;;;;;;;;4.00;4.00;;;;;20.93;44.84;98397.72;4903311;28;102045;-84
2022/05/11 10:40:44;;;;;;;;;3.00;3.00;;;;;20.95;44.95;98413.91;4905905;28;108679;-84
2022/05/11 10:43:37;;;;;;;;;2.67;2.67;;;;;20.94;44.65;98401.25;4896129;28;105346;-84
2022/05/11 10:46:35;;;;;;;;;5.33;3.00;;;;;20.97;44.54;98383.41;4900926;28;102172;-84
2022/05/11 10:49:11;;;;;;;;;2.67;2.67;;;;;20.97;44.74;98395.22;4912250;28;102254;-84
2022/05/11 10:51:50;;;;;;;;;2.67;2.67;;;;;20.98;44.65;98383.16;4909646;28;108805;-85
2022/05/11 10:54:40;;;;;;;;;3.33;3.33;;;;;21.01;44.90;98390.84;4908862;28;102244;-84
2022/05/11 10:57:10;;;;;;;;;5.00;4.00;;;;;20.99;44.54;98390.28;4917043;28;102710;-84
2022/05/11 10:59:55;;;;;;;;;2.67;2.67;;;;;21.01;44.95;98384.50;4910184;28;102249;-85
2022/05/11 11:02:48;;;;;;;;;4.00;3.00;;;;;21.02;44.39;98387.00;4899464;28;108800;-84
2022/05/11 11:05:25;;;;;;;;;3.00;3.00;;;;;21.02;44.78;98389.75;4907150;28;102679;-84
2022/05/11 11:08:05;;;;;;;;;2.67;2.67;;;;;21.03;44.91;98383.13;4905429;28;102857;-84
2022/05/11 11:10:58;;;;;;;;;2.00;2.00;;;;;21.03;44.42;98380.38;4904747;28;105953;-84
2022/05/11 11:13:43;;;;;;;;;2.67;2.67;;;;;21.05;44.88;98386.44;4911093;28;108839;-84
2022/05/11 11:16:12;;;;;;;;;2.67;2.67;;;;;21.05;44.49;98389.19;4913058;28;102376;-84
2022/05/11 11:18:41;;;;;;;;;2.00;2.00;;;;;21.06;44.53;98376.28;4889874;28;102248;-84
2022/05/11 11:21:09;;;;;;;;;2.67;2.67;;;;;20.97;44.65;98362.25;4890241;28;102168;-84
2022/05/11 11:23:41;;;;;;;;;4.00;4.00;;;;;21.09;44.37;98378.47;4875854;28;104308;-82
2022/05/11 11:26:13;;;;;;;;;2.33;2.33;;;;;21.07;44.50;98369.69;4892016;28;101993;-83
2022/05/11 11:28:40;;;;;;;;;3.00;3.00;;;;;21.09;44.42;98373.78;4890498;28;102547;-83
2022/05/11 11:31:10;;;;;;;;;4.00;3.33;;;;;21.10;44.90;98364.44;4889940;28;102762;-83
2022/05/11 11:33:41;;;;;;;;;2.67;2.67;;;;;21.09;45.04;98365.53;4888944;28;104444;-83
2022/05/11 11:36:32;;;;;;;;;3.33;3.00;;;;;21.11;44.85;98371.59;4889363;28;102159;-83
2022/05/11 11:39:00;;;;;;;;;3.00;3.00;;;;;21.13;44.38;98372.16;4891099;28;102533;-83
2022/05/11 11:41:28;;;;;;;;;5.67;5.67;;;;;21.13;44.42;98366.66;4894150;28;102642;-83
2022/05/11 11:43:59;;;;;;;;;4.00;2.33;;;;;21.14;44.87;98365.59;4886264;28;104284;-83
2022/05/11 11:46:40;;;;;;;;;3.67;3.67;;;;;21.15;44.48;98361.75;4892494;28;102241;-83
2022/05/11 11:49:08;;;;;;;;;2.67;2.00;;;;;21.16;44.91;98366.16;4889694;28;102040;-83
2022/05/11 11:51:51;;;;;;;;;3.00;2.67;;;;;21.18;44.84;98368.59;4897373;28;102398;-83
2022/05/11 11:54:46;;;;;;;;;2.67;2.67;;;;;21.19;44.29;98359.25;4885074;28;111230;-83
2022/05/11 11:57:13;;;;;;;;;4.33;2.67;;;;;21.21;44.39;98362.53;4892924;28;105051;-81
2022/05/11 12:00:21;;;;;;;;;2.67;2.67;;;;;21.21;44.85;98355.13;4895855;28;103292;-83
2022/05/11 12:02:48;;;;;;;;;2.00;2.00;;;;;21.23;44.74;98346.59;4887247;28;102581;-83
2022/05/11 12:05:37;;;;;;;;;3.00;2.67;;;;;21.26;44.52;98351.53;4892183;28;104152;-83
2022/05/11 12:16:46;;;;;;;;;2.67;2.67;;;;;21.32;44.42;98340.28;4893131;28;104948;-83
2022/05/11 12:19:14;;;;;;;;;3.67;3.67;;;;;21.34;44.41;98346.31;4890759;28;102152;-83
2022/05/11 12:21:42;;;;;;;;;1.67;1.67;;;;;21.35;44.43;98344.38;4895617;28;102998;-83
2022/05/11 12:24:20;;;;;;;;;2.33;2.33;;;;;21.38;44.68;98346.59;4887196;28;102183;-83
2022/05/11 12:26:54;;;;;;;;;3.67;3.00;;;;;21.40;44.81;98338.06;4891140;28;108979;-83
2022/05/11 12:32:10;;;;;;;;;2.33;2.33;;;;;21.43;44.43;98329.25;4895069;28;102110;-83
2022/05/11 12:34:44;;;;;;;;;2.67;2.67;;;;;21.43;44.12;98321.84;4894420;28;102232;-83
2022/05/11 12:37:31;;;;;;;;;4.00;3.00;;;;;21.45;44.33;98318.78;4891332;28;109108;-83
2022/05/11 12:40:01;;;;;;;;;2.33;2.33;;;;;21.46;44.23;98306.69;4877238;28;102466;-83
2022/05/11 12:42:35;;;;;;;;;3.00;3.00;;;;;21.48;44.41;98316.28;4890375;28;102642;-83
2022/05/11 12:45:03;;;;;;;;;2.00;2.00;;;;;21.47;44.38;98322.09;4893262;28;102857;-83
2022/05/11 12:47:30;;;;;;;;;2.33;2.00;;;;;21.46;44.23;98320.44;4890552;28;104214;-83
2022/05/11 12:49:57;;;;;;;;;2.67;2.67;;;;;21.49;44.42;98319.88;4885398;28;102180;-83
2022/05/11 12:52:26;;;;;;;;;3.00;2.00;;;;;21.49;44.53;98325.38;4893468;28;101942;-83
2022/05/11 12:54:58;;;;;;;;;3.00;3.00;;;;;21.49;44.39;98325.38;4879080;28;102647;-83
2022/05/11 12:57:53;;;;;;;;;2.00;2.00;;;;;21.52;44.20;98313.84;4893555;28;104067;-83
2022/05/11 13:00:20;;;;;;;;;2.33;2.33;;;;;21.53;44.08;98315.47;4891888;28;102371;-83
2022/05/11 13:02:49;;;;;;;;;3.00;3.00;;;;;21.52;44.31;98325.66;4891067;28;102403;-83
2022/05/11 13:05:17;;;;;;;;;2.67;2.67;;;;;21.53;44.33;98320.97;4883708;28;102152;-82
2022/05/11 13:07:47;;;;;;;;;4.00;3.00;;;;;21.56;44.39;98314.94;4883871;28;104073;-83
2022/05/11 13:10:21;;;;;;;;;4.00;2.00;;;;;21.56;44.45;98314.94;4887723;28;103720;-82
2022/05/11 13:12:50;;;;;;;;;2.33;1.67;;;;;21.56;44.33;98307.50;4888548;28;102213;-83
2022/05/11 13:15:40;;;;;;;;;2.00;2.00;;;;;21.58;44.20;98312.69;4886695;28;102245;-83
2022/05/11 13:18:10;;;;;;;;;2.00;2.00;;;;;21.60;44.25;98305.84;4890889;28;104008;-83
2022/05/11 13:20:41;;;;;;;;;2.00;2.00;;;;;21.61;44.26;98310.25;4875858;28;102304;-83
2022/05/11 13:23:25;;;;;;;;;2.67;2.00;;;;;21.66;44.27;98303.88;4889027;28;101778;-82
2022/05/11 13:25:54;;;;;;;;;2.67;1.67;;;;;21.69;44.42;98304.16;4888060;28;102522;-83
2022/05/11 13:28:28;;;;;;;;;3.67;1.67;;;;;21.73;44.15;98296.16;4887426;28;104360;-83
2022/05/11 13:30:57;;;;;;;;;2.00;2.00;;;;;21.74;43.89;98304.16;4896444;28;102520;-83
2022/05/11 13:33:28;;;;;;;;;2.00;2.00;;;;;21.76;44.24;98301.09;4887676;28;102694;-83
2022/05/11 13:36:09;;;;;;;;;1.67;1.67;;;;;21.78;44.12;98296.97;4884887;28;102176;-83
2022/05/11 13:38:37;;;;;;;;;3.00;3.00;;;;;21.81;44.25;98292.81;4889537;28;104422;-84
2022/05/11 13:41:07;;;;;;;;;1.00;1.00;;;;;21.81;43.72;98290.06;4905777;28;102251;-83
2022/05/11 13:43:36;;;;;;;;;2.00;2.00;;;;;21.83;44.16;98287.03;4881413;28;103309;-84
2022/05/11 13:46:07;;;;;;;;;1.00;1.00;;;;;21.84;44.18;98284.00;4896679;28;102495;-83
2022/05/11 13:48:43;;;;;;;;;2.00;2.00;;;;;21.92;43.75;98274.34;4881287;28;104465;-84
2022/05/11 13:51:19;;;;;;;;;2.00;2.00;;;;;22.01;43.75;98270.75;4872641;28;102029;-83
2022/05/11 13:53:51;;;;;;;;;2.00;2.00;;;;;22.07;43.68;98272.34;4888509;28;102155;-83
2022/05/11 13:56:21;;;;;;;;;1.33;1.00;;;;;22.14;43.60;98281.16;4889365;28;102509;-83
2022/05/11 13:58:57;;;;;;;;;3.00;1.67;;;;;22.02;43.34;98246.81;4886923;28;105859;-83
2022/05/11 14:01:29;;;;;;;;;1.33;1.33;;;;;22.17;43.51;98272.31;4888901;28;102409;-83
2022/05/11 14:03:58;;;;;;;;;3.33;2.33;;;;;22.21;43.73;98273.38;4887417;28;102328;-83
2022/05/11 14:06:32;;;;;;;;;2.67;1.67;;;;;22.25;43.84;98262.63;4885744;28;102325;-79
2022/05/11 14:08:59;;;;;;;;;1.67;1.67;;;;;22.29;43.30;98255.44;4891192;28;104148;-81
2022/05/11 14:11:26;;;;;;;;;3.00;3.00;;;;;22.33;43.04;98259.28;4890580;28;102244;-81
2022/05/11 14:13:53;;;;;;;;;3.33;3.33;;;;;22.32;42.96;98257.63;4896040;28;102084;-81
2022/05/11 14:16:26;;;;;;;;;4.00;2.00;;;;;22.32;42.78;98262.31;4890774;28;102663;-82
2022/05/11 14:18:53;;;;;;;;;3.67;3.67;;;;;22.33;42.79;98258.47;4877821;28;103877;-82
2022/05/11 14:21:20;;;;;;;;;3.67;3.67;;;;;22.30;42.70;98253.50;4881779;28;103099;-81
2022/05/11 14:23:48;;;;;;;;;4.33;3.67;;;;;22.25;43.00;98257.94;4887533;28;102308;-81
2022/05/11 14:26:15;;;;;;;;;4.67;4.00;;;;;22.22;42.86;98253.00;4894836;28;102410;-81
2022/05/11 14:28:42;;;;;;;;;3.33;3.33;;;;;22.17;42.84;98244.75;4880886;28;104089;-82
2022/05/11 14:31:18;;;;;;;;;5.00;4.67;;;;;22.19;43.11;98237.06;4880872;28;102153;-82
2022/05/11 14:33:46;;;;;;;;;4.33;4.33;;;;;22.17;43.23;98253.03;4880257;28;103065;-81
2022/05/11 14:36:13;;;;;;;;;5.00;5.00;;;;;22.17;42.85;98247.53;4894550;28;102051;-81
2022/05/11 14:38:40;;;;;;;;;6.67;6.00;;;;;22.16;43.00;98247.78;4896434;28;108896;-81
2022/05/11 14:41:07;;;;;;;;;5.00;4.00;;;;;22.17;43.44;98246.69;4874989;28;102256;-81
2022/05/11 14:43:34;;;;;;;;;5.00;3.67;;;;;22.26;42.68;98242.22;4888982;28;102224;-82
2022/05/11 14:46:03;;;;;;;;;3.00;2.67;;;;;22.33;42.95;98239.19;4889402;28;102048;-81
2022/05/11 14:48:37;;;;;;;;;6.00;5.00;;;;;22.33;43.10;98228.16;4894230;28;104301;-81
2022/05/11 14:51:04;;;;;;;;;5.00;5.00;;;;;22.33;43.29;98236.41;4891626;28;102386;-82
2022/05/11 14:53:33;;;;;;;;;4.67;4.67;;;;;22.31;43.30;98233.94;4886872;28;102216;-82
2022/05/11 14:56:00;;;;;;;;;6.67;5.67;;;;;22.31;43.13;98224.84;4898973;28;102619;-82
2022/05/11 15:04:02;;;;;;;;;6.00;6.00;;;;;22.28;43.33;98230.94;4888210;28;102118;-82
2022/05/11 15:06:30;;;;;;;;;4.33;4.33;;;;;22.27;43.71;98227.34;4891165;28;102271;-81
2022/05/11 15:08:57;;;;;;;;;6.67;4.67;;;;;22.27;43.70;98226.53;4891015;28;104068;-82
2022/05/11 15:14:11;;;;;;;;;5.00;5.00;;;;;22.28;43.74;98217.16;4898409;28;102215;-81
2022/05/11 15:16:43;;;;;;;;;6.00;5.00;;;;;22.28;43.76;98217.16;4889856;28;102190;-82
2022/05/11 15:19:10;;;;;;;;;5.67;5.67;;;;;22.27;43.45;98221.03;4876039;28;112462;-81
2022/05/11 15:21:37;;;;;;;;;6.00;5.67;;;;;22.25;43.68;98222.13;4890155;28;104005;-82
2022/05/11 15:24:05;;;;;;;;;5.67;5.33;;;;;22.26;43.67;98222.94;4887462;28;102421;-81
2022/05/11 15:26:33;;;;;;;;;5.67;5.00;;;;;22.25;43.71;98219.38;4894568;28;102833;-82
2022/05/11 15:29:00;;;;;;;;;5.00;3.67;;;;;22.23;43.71;98216.09;4885170;28;109707;-81
2022/05/11 15:31:27;;;;;;;;;4.33;4.33;;;;;22.23;43.92;98218.84;4891044;28;102382;-81
2022/05/11 15:33:54;;;;;;;;;5.00;5.00;;;;;22.22;43.78;98217.19;4882341;28;102252;-81
2022/05/11 15:36:21;;;;;;;;;5.33;4.00;;;;;22.21;44.16;98212.78;4889932;28;102597;-81
2022/05/11 15:38:48;;;;;;;;;5.00;5.00;;;;;22.19;43.86;98204.00;4886416;28;104249;-81
2022/05/11 15:41:15;;;;;;;;;7.00;6.00;;;;;22.21;44.12;98207.28;4892713;28;102473;-81
2022/05/11 15:43:42;;;;;;;;;4.33;4.33;;;;;22.24;44.05;98214.16;4897360;28;102628;-79
2022/05/11 15:46:10;;;;;;;;;4.67;4.67;;;;;22.26;43.92;98209.19;4887494;28;102320;-78
2022/05/11 15:48:37;;;;;;;;;3.67;3.67;;;;;22.31;43.64;98216.59;4897952;28;104274;-81
2022/05/11 15:51:10;;;;;;;;;5.00;4.67;;;;;22.31;43.61;98211.91;4890867;28;102506;-81
2022/05/11 15:53:37;;;;;;;;;4.67;4.67;;;;;22.29;43.75;98213.31;4884573;28;102434;-81
2022/05/11 15:56:04;;;;;;;;;5.67;5.67;;;;;22.29;43.81;98207.81;4873876;28;104030;-82
2022/05/11 15:58:32;;;;;;;;;6.33;5.67;;;;;22.26;43.71;98200.91;4887575;28;104134;-82
2022/05/11 16:00:59;;;;;;;;;5.33;4.67;;;;;22.25;44.01;98202.84;4886452;28;102467;-82
2022/05/11 16:03:26;;;;;;;;;7.00;6.00;;;;;22.24;44.39;98206.69;4885552;28;102416;-83
2022/05/11 16:05:54;;;;;;;;;5.00;5.00;;;;;22.24;44.01;98200.41;4884729;28;102531;-82
2022/05/11 16:08:22;;;;;;;;;6.67;6.00;;;;;22.23;43.61;98202.31;4880515;28;104256;-82
2022/05/11 16:10:52;;;;;;;;;4.67;4.67;;;;;22.21;44.03;98201.78;4907623;28;102247;-83
2022/05/11 16:13:19;;;;;;;;;7.00;6.67;;;;;22.20;43.89;98194.63;4897585;28;102107;-82
2022/05/11 16:15:46;;;;;;;;;7.33;5.67;;;;;22.20;43.89;98189.09;4896933;28;102188;-82
2022/05/11 16:20:59;;;;;;;;;6.33;5.67;;;;;22.20;43.80;98186.34;4894031;28;102197;-82
2022/05/11 16:23:29;;;;;;;;;5.00;5.00;;;;;22.19;43.72;98192.16;4888759;28;102308;-82
2022/05/11 16:25:57;;;;;;;;;6.00;6.00;;;;;22.18;44.17;98185.00;4896684;28;102588;-83
2022/05/11 16:28:25;;;;;;;;;5.67;5.33;;;;;22.18;44.05;98185.84;4886010;28;104057;-83
2022/05/11 16:30:53;;;;;;;;;6.00;6.00;;;;;22.17;43.93;98180.59;4888886;28;103030;-82
2022/05/11 16:33:22;;;;;;;;;5.67;5.67;;;;;22.16;43.92;98182.53;4896651;28;102259;-82
2022/05/11 16:35:50;;;;;;;;;7.00;7.00;;;;;22.15;44.42;98175.38;4889645;28;102197;-82
2022/05/11 16:38:17;;;;;;;;;6.00;6.00;;;;;22.13;44.36;98174.84;4890409;28;104260;-82
2022/05/11 16:40:44;;;;;;;;;6.67;6.00;;;;;22.15;44.00;98180.06;4892235;28;102113;-83
2022/05/11 16:43:11;;;;;;;;;6.00;5.67;;;;;22.14;44.11;98173.75;4884768;28;102061;-82
2022/05/11 16:45:39;;;;;;;;;6.67;6.67;;;;;22.11;44.32;98168.78;4884888;28;102427;-83
2022/05/11 16:48:07;;;;;;;;;6.33;6.33;;;;;22.11;44.23;98168.78;4886615;28;104163;-83
2022/05/11 16:50:34;;;;;;;;;6.67;6.33;;;;;22.10;44.15;98172.66;4888228;28;102577;-83
2022/05/11 16:53:01;;;;;;;;;6.00;6.00;;;;;22.08;44.46;98174.06;4880798;28;102066;-83
2022/05/11 16:55:29;;;;;;;;;6.00;6.00;;;;;22.08;44.15;98163.88;4892131;28;102243;-83
2022/05/11 16:57:56;;;;;;;;;6.00;6.00;;;;;22.08;44.15;98163.88;4883127;28;104234;-83
2022/05/11 17:00:23;;;;;;;;;6.00;6.00;;;;;22.06;44.12;98160.59;4891811;28;102247;-82
2022/05/11 17:02:50;;;;;;;;;6.00;5.67;;;;;22.06;44.54;98166.09;4887898;28;102526;-82
2022/05/11 17:05:18;;;;;;;;;6.00;6.00;;;;;22.06;44.39;98168.03;4895348;28;102412;-82
2022/05/11 17:07:45;;;;;;;;;5.67;5.67;;;;;22.04;44.14;98165.53;4893740;28;108980;-83
2022/05/11 17:10:16;;;;;;;;;5.00;5.00;;;;;22.04;44.62;98168.28;4891722;28;102241;-83
2022/05/11 17:12:44;;;;;;;;;5.33;5.33;;;;;22.03;44.15;98169.41;4882558;28;104698;-83
2022/05/11 17:15:12;;;;;;;;;5.67;5.67;;;;;22.01;44.28;98165.31;4891868;28;102143;-83
2022/05/11 17:17:39;;;;;;;;;7.00;6.33;;;;;22.01;44.42;98170.81;4891372;28;104415;-82
2022/05/11 17:20:08;;;;;;;;;6.67;5.00;;;;;22.00;44.51;98166.41;4885756;28;102437;-83
2022/05/11 17:22:37;;;;;;;;;5.67;5.67;;;;;22.00;44.43;98161.72;4888528;28;102404;-83
2022/05/11 17:25:05;;;;;;;;;4.00;4.00;;;;;21.99;44.16;98164.75;4886146;28;102484;-83
2022/05/11 17:27:32;;;;;;;;;7.00;6.00;;;;;21.92;44.48;98164.22;4891123;28;104238;-83
2022/05/11 17:29:59;;;;;;;;;5.67;5.67;;;;;21.94;44.96;98168.34;4886124;28;104048;-83
2022/05/11 17:32:26;;;;;;;;;6.33;6.00;;;;;21.99;44.71;98170.25;4886843;28;102297;-83
2022/05/11 17:34:53;;;;;;;;;4.67;4.33;;;;;21.97;44.63;98173.31;4886042;28;102500;-82
2022/05/11 17:37:21;;;;;;;;;5.67;5.67;;;;;21.96;44.70;98170.84;4893159;28;104177;-83
2022/05/11 17:39:48;;;;;;;;;6.00;6.00;;;;;21.96;44.39;98162.56;4890717;28;102100;-83
2022/05/11 17:42:15;;;;;;;;;4.00;4.00;;;;;21.96;45.04;98168.09;4882838;28;102340;-82
2022/05/11 17:44:42;;;;;;;;;4.67;4.67;;;;;21.94;44.53;98165.59;4890176;28;102182;-83
2022/05/11 17:47:09;;;;;;;;;4.00;3.67;;;;;21.94;44.82;98167.53;4889601;28;104065;-83
2022/05/11 17:49:36;;;;;;;;;6.33;5.67;;;;;21.93;44.67;98172.22;4887453;28;103089;-83
2022/05/11 17:52:17;;;;;;;;;5.67;5.67;;;;;21.93;44.50;98174.16;4882202;28;102134;-83
2022/05/11 17:54:45;;;;;;;;;6.00;5.00;;;;;21.90;44.92;98170.00;4896722;28;102337;-83
2022/05/11 17:57:12;;;;;;;;;6.00;4.67;;;;;21.92;44.92;98175.25;4890123;28;103763;-83
2022/05/11 17:59:39;;;;;;;;;6.00;6.00;;;;;21.91;45.22;98170.84;4891920;28;104971;-82
2022/05/11 18:02:06;;;;;;;;;7.00;6.00;;;;;21.91;45.08;98173.59;4884060;28;103102;-83
2022/05/11 18:04:33;;;;;;;;;4.67;4.67;;;;;21.88;45.15;98166.72;4893553;28;102633;-83
2022/05/11 18:07:01;;;;;;;;;4.00;4.00;;;;;21.89;44.73;98170.28;4885800;28;104201;-83
2022/05/11 18:09:28;;;;;;;;;5.67;5.33;;;;;21.88;44.90;98165.91;4887639;28;102300;-82
2022/05/11 18:11:56;;;;;;;;;6.33;6.33;;;;;21.88;44.95;98172.25;4894077;28;102728;-83
2022/05/11 18:14:28;;;;;;;;;5.00;5.00;;;;;21.86;44.92;98168.94;4888252;28;103432;-82
2022/05/11 18:16:55;;;;;;;;;5.33;5.33;;;;;21.85;44.85;98164.53;4891895;28;105453;-82
2022/05/11 18:19:22;;;;;;;;;4.67;4.00;;;;;21.86;44.98;98168.94;4887046;28;102647;-82
2022/05/11 18:21:49;;;;;;;;;3.33;3.33;;;;;21.84;45.04;98162.88;4888133;28;102520;-83
2022/05/11 18:24:16;;;;;;;;;4.33;4.00;;;;;21.83;45.38;98169.50;4893596;28;102245;-83
2022/05/11 18:26:44;;;;;;;;;4.33;4.00;;;;;21.84;44.97;98168.38;4888166;28;104048;-83
2022/05/11 18:29:11;;;;;;;;;2.67;2.67;;;;;21.84;45.21;98171.13;4888397;28;102505;-83
2022/05/11 18:31:38;;;;;;;;;4.67;4.67;;;;;21.83;45.34;98176.94;4888330;28;102199;-82
2022/05/11 18:34:09;;;;;;;;;5.33;5.33;;;;;21.83;45.07;98172.25;4879471;28;102237;-82
2022/05/11 18:36:36;;;;;;;;;5.00;5.00;;;;;21.81;45.04;98172.53;4889820;28;104182;-83
2022/05/11 18:39:04;;;;;;;;;4.67;4.67;;;;;21.81;45.52;98174.47;4882988;28;102187;-82
2022/05/11 18:41:31;;;;;;;;;4.00;4.00;;;;;21.81;45.46;98177.22;4888408;28;102122;-83
2022/05/11 18:43:58;;;;;;;;;4.00;4.00;;;;;21.79;45.00;98183.00;4881719;28;102224;-82
2022/05/11 18:46:26;;;;;;;;;4.67;4.67;;;;;21.80;45.29;98183.81;4881734;28;105067;-83
2022/05/11 18:48:53;;;;;;;;;4.33;4.33;;;;;21.79;44.91;98195.97;4880587;28;102190;-83
2022/05/11 18:51:20;;;;;;;;;6.00;5.00;;;;;21.78;45.51;98188.81;4885793;28;102847;-83
2022/05/11 18:53:47;;;;;;;;;5.33;4.67;;;;;21.77;45.19;98193.47;4882484;28;102212;-83
2022/05/11 18:56:14;;;;;;;;;5.33;4.00;;;;;21.78;45.44;98191.56;4881355;28;104155;-83
2022/05/11 18:58:41;;;;;;;;;6.00;6.00;;;;;21.79;45.58;98195.97;4887705;28;102263;-82
2022/05/11 19:01:09;;;;;;;;;4.33;3.67;;;;;21.77;45.36;98195.41;4884636;28;102391;-83
2022/05/11 19:03:36;;;;;;;;;4.67;4.67;;;;;21.76;45.32;98200.09;4892396;28;102121;-82
2022/05/11 19:06:04;;;;;;;;;5.00;4.00;;;;;21.77;45.70;98201.75;4888922;28;104106;-82
2022/05/11 19:08:31;;;;;;;;;7.67;6.00;;;;;21.75;45.34;98198.44;4883153;28;105745;-82
2022/05/11 19:10:58;;;;;;;;;6.33;5.67;;;;;21.76;45.20;98202.00;4879807;28;103374;-83
2022/05/11 19:13:25;;;;;;;;;3.67;3.67;;;;;21.75;45.11;98203.09;4881902;28;102242;-82
2022/05/11 19:15:52;;;;;;;;;4.33;4.33;;;;;21.75;45.51;98200.34;4886842;28;104089;-82
2022/05/11 19:18:19;;;;;;;;;4.67;4.00;;;;;21.74;45.06;98191.31;4872053;28;102413;-83
2022/05/11 19:20:47;;;;;;;;;4.00;4.00;;;;;21.75;44.95;98200.34;4882785;28;104876;-83
2022/05/11 19:23:18;;;;;;;;;3.00;3.00;;;;;21.75;45.36;98195.69;4875112;28;102196;-83